sensor_id;sensor_type;location;lat;lon;timestamp;P1;durP1;ratioP1;P2;durP2;ratioP2
25107;SDS011;13090;53.422;7.670;2023-12-22T00:00:25;9.65;;;2.10;;
25107;SDS011;13090;53.422;7.670;2023-12-22T00:06:07;10.52;;;1.95;;
25107;SDS011;13090;53.422;7.670;2023-12-22T00:11:47;19.30;;;2.63;;
25107;SDS011;13090;53.422;7.670;2023-12-22T00:17:27;18.58;;;3.17;;
25107;SDS011;13090;53.422;7.670;2023-12-22T00:23:09;17.27;;;3.55;;
25107;SDS011;13090;53.422;7.670;2023-12-22T00:28:49;9.95;;;2.83;;
25107;SDS011;13090;53.422;7.670;2023-12-22T00:34:29;15.10;;;2.72;;
25107;SDS011;13090;53.422;7.670;2023-12-22T00:40:11;13.15;;;2.53;;
25107;SDS011;13090;53.422;7.670;2023-12-22T00:45:52;13.77;;;2.25;;
25107;SDS011;13090;53.422;7.670;2023-12-22T00:51:32;14.27;;;1.92;;
25107;SDS011;13090;53.422;7.670;2023-12-22T00:57:14;9.98;;;1.83;;
25107;SDS011;13090;53.422;7.670;2023-12-22T01:02:54;12.98;;;2.22;;
25107;SDS011;13090;53.422;7.670;2023-12-22T01:08:36;12.70;;;2.10;;
25107;SDS011;13090;53.422;7.670;2023-12-22T01:14:18;14.20;;;2.55;;
25107;SDS011;13090;53.422;7.670;2023-12-22T01:19:58;15.38;;;2.20;;
25107;SDS011;13090;53.422;7.670;2023-12-22T01:25:38;11.77;;;2.15;;
25107;SDS011;13090;53.422;7.670;2023-12-22T01:31:19;10.10;;;2.20;;
25107;SDS011;13090;53.422;7.670;2023-12-22T01:37:00;18.38;;;2.92;;
25107;SDS011;13090;53.422;7.670;2023-12-22T01:42:40;16.40;;;2.45;;
25107;SDS011;13090;53.422;7.670;2023-12-22T01:48:22;9.43;;;1.58;;
25107;SDS011;13090;53.422;7.670;2023-12-22T01:54:02;9.73;;;1.48;;
25107;SDS011;13090;53.422;7.670;2023-12-22T01:59:44;8.82;;;1.42;;
25107;SDS011;13090;53.422;7.670;2023-12-22T02:05:27;18.00;;;2.33;;
25107;SDS011;13090;53.422;7.670;2023-12-22T02:11:07;21.02;;;3.28;;
25107;SDS011;13090;53.422;7.670;2023-12-22T02:16:48;18.98;;;2.90;;
25107;SDS011;13090;53.422;7.670;2023-12-22T02:22:36;18.10;;;3.10;;
25107;SDS011;13090;53.422;7.670;2023-12-22T02:28:16;17.00;;;3.38;;
25107;SDS011;13090;53.422;7.670;2023-12-22T02:33:59;15.57;;;2.25;;
25107;SDS011;13090;53.422;7.670;2023-12-22T02:39:41;19.90;;;2.20;;
25107;SDS011;13090;53.422;7.670;2023-12-22T02:45:22;11.15;;;2.00;;
25107;SDS011;13090;53.422;7.670;2023-12-22T02:51:02;13.32;;;2.15;;
25107;SDS011;13090;53.422;7.670;2023-12-22T02:56:46;12.70;;;1.90;;
25107;SDS011;13090;53.422;7.670;2023-12-22T03:02:26;9.55;;;1.48;;
25107;SDS011;13090;53.422;7.670;2023-12-22T03:08:07;6.70;;;1.50;;
25107;SDS011;13090;53.422;7.670;2023-12-22T03:13:48;12.07;;;2.00;;
25107;SDS011;13090;53.422;7.670;2023-12-22T03:19:28;13.35;;;2.35;;
25107;SDS011;13090;53.422;7.670;2023-12-22T03:25:09;13.85;;;2.40;;
25107;SDS011;13090;53.422;7.670;2023-12-22T03:30:50;19.83;;;2.58;;
25107;SDS011;13090;53.422;7.670;2023-12-22T03:36:30;20.80;;;3.47;;
25107;SDS011;13090;53.422;7.670;2023-12-22T03:42:11;28.02;;;4.07;;
25107;SDS011;13090;53.422;7.670;2023-12-22T03:47:52;15.43;;;2.53;;
25107;SDS011;13090;53.422;7.670;2023-12-22T03:53:32;20.17;;;3.50;;
25107;SDS011;13090;53.422;7.670;2023-12-22T03:59:12;15.80;;;3.17;;
25107;SDS011;13090;53.422;7.670;2023-12-22T04:04:54;16.52;;;3.60;;
25107;SDS011;13090;53.422;7.670;2023-12-22T04:10:34;18.95;;;2.63;;
25107;SDS011;13090;53.422;7.670;2023-12-22T04:16:15;19.90;;;3.10;;
25107;SDS011;13090;53.422;7.670;2023-12-22T04:21:57;17.95;;;3.08;;
25107;SDS011;13090;53.422;7.670;2023-12-22T04:27:37;20.80;;;3.78;;
25107;SDS011;13090;53.422;7.670;2023-12-22T04:33:17;14.07;;;2.58;;
25107;SDS011;13090;53.422;7.670;2023-12-22T04:38:59;18.75;;;3.70;;
25107;SDS011;13090;53.422;7.670;2023-12-22T04:44:39;8.02;;;1.60;;
25107;SDS011;13090;53.422;7.670;2023-12-22T04:50:19;7.53;;;1.33;;
25107;SDS011;13090;53.422;7.670;2023-12-22T04:56:03;9.23;;;1.40;;
25107;SDS011;13090;53.422;7.670;2023-12-22T05:01:44;7.40;;;1.17;;
25107;SDS011;13090;53.422;7.670;2023-12-22T05:07:24;7.55;;;1.50;;
25107;SDS011;13090;53.422;7.670;2023-12-22T05:13:05;10.95;;;1.70;;
25107;SDS011;13090;53.422;7.670;2023-12-22T05:18:46;18.30;;;2.42;;
25107;SDS011;13090;53.422;7.670;2023-12-22T05:24:26;19.30;;;2.67;;
25107;SDS011;13090;53.422;7.670;2023-12-22T05:30:08;21.27;;;3.10;;
25107;SDS011;13090;53.422;7.670;2023-12-22T05:35:49;17.92;;;2.60;;
25107;SDS011;13090;53.422;7.670;2023-12-22T05:41:29;18.05;;;3.05;;
25107;SDS011;13090;53.422;7.670;2023-12-22T05:47:11;20.27;;;2.38;;
25107;SDS011;13090;53.422;7.670;2023-12-22T05:52:51;18.67;;;3.55;;
25107;SDS011;13090;53.422;7.670;2023-12-22T05:58:31;18.40;;;3.67;;
25107;SDS011;13090;53.422;7.670;2023-12-22T06:04:12;13.32;;;2.70;;
25107;SDS011;13090;53.422;7.670;2023-12-22T06:09:53;32.75;;;3.15;;
25107;SDS011;13090;53.422;7.670;2023-12-22T06:15:33;18.65;;;3.00;;
25107;SDS011;13090;53.422;7.670;2023-12-22T06:21:15;20.63;;;3.53;;
25107;SDS011;13090;53.422;7.670;2023-12-22T06:26:55;16.05;;;2.88;;
25107;SDS011;13090;53.422;7.670;2023-12-22T06:32:35;27.08;;;3.70;;
25107;SDS011;13090;53.422;7.670;2023-12-22T06:38:17;24.70;;;3.50;;
25107;SDS011;13090;53.422;7.670;2023-12-22T06:43:57;26.40;;;3.40;;
25107;SDS011;13090;53.422;7.670;2023-12-22T06:49:38;22.45;;;3.33;;
25107;SDS011;13090;53.422;7.670;2023-12-22T06:55:20;17.88;;;3.35;;
25107;SDS011;13090;53.422;7.670;2023-12-22T07:01:00;24.13;;;3.83;;
25107;SDS011;13090;53.422;7.670;2023-12-22T07:06:40;21.95;;;3.20;;
25107;SDS011;13090;53.422;7.670;2023-12-22T07:12:22;27.08;;;3.38;;
25107;SDS011;13090;53.422;7.670;2023-12-22T07:18:02;19.85;;;3.80;;
25107;SDS011;13090;53.422;7.670;2023-12-22T07:23:43;22.80;;;3.40;;
25107;SDS011;13090;53.422;7.670;2023-12-22T07:29:25;19.95;;;2.97;;
25107;SDS011;13090;53.422;7.670;2023-12-22T07:35:05;15.65;;;2.92;;
25107;SDS011;13090;53.422;7.670;2023-12-22T07:40:45;15.75;;;3.63;;
25107;SDS011;13090;53.422;7.670;2023-12-22T07:46:27;20.88;;;3.30;;
25107;SDS011;13090;53.422;7.670;2023-12-22T07:52:07;19.83;;;3.47;;
25107;SDS011;13090;53.422;7.670;2023-12-22T07:57:48;19.55;;;3.63;;
25107;SDS011;13090;53.422;7.670;2023-12-22T08:03:30;21.02;;;3.22;;
25107;SDS011;13090;53.422;7.670;2023-12-22T08:09:10;20.98;;;3.92;;
25107;SDS011;13090;53.422;7.670;2023-12-22T08:14:52;20.52;;;3.35;;
25107;SDS011;13090;53.422;7.670;2023-12-22T08:20:34;14.40;;;2.63;;
25107;SDS011;13090;53.422;7.670;2023-12-22T08:26:20;13.15;;;2.10;;
25107;SDS011;13090;53.422;7.670;2023-12-22T08:32:00;9.63;;;1.73;;
25107;SDS011;13090;53.422;7.670;2023-12-22T08:37:42;10.23;;;1.50;;
25107;SDS011;13090;53.422;7.670;2023-12-22T08:43:23;10.25;;;1.75;;
25107;SDS011;13090;53.422;7.670;2023-12-22T08:49:03;3.40;;;1.23;;
25107;SDS011;13090;53.422;7.670;2023-12-22T08:54:45;11.55;;;1.25;;
25107;SDS011;13090;53.422;7.670;2023-12-22T09:00:25;7.60;;;1.27;;
25107;SDS011;13090;53.422;7.670;2023-12-22T09:06:05;6.72;;;1.67;;
25107;SDS011;13090;53.422;7.670;2023-12-22T09:11:47;12.20;;;2.10;;
25107;SDS011;13090;53.422;7.670;2023-12-22T09:17:27;12.50;;;2.03;;
25107;SDS011;13090;53.422;7.670;2023-12-22T09:23:07;17.10;;;2.33;;
25107;SDS011;13090;53.422;7.670;2023-12-22T09:28:49;15.05;;;2.80;;
25107;SDS011;13090;53.422;7.670;2023-12-22T09:34:29;12.68;;;2.60;;
25107;SDS011;13090;53.422;7.670;2023-12-22T09:40:10;16.30;;;2.83;;
25107;SDS011;13090;53.422;7.670;2023-12-22T09:45:52;14.90;;;2.22;;
25107;SDS011;13090;53.422;7.670;2023-12-22T09:51:33;16.58;;;2.60;;
25107;SDS011;13090;53.422;7.670;2023-12-22T09:57:13;15.90;;;2.35;;
25107;SDS011;13090;53.422;7.670;2023-12-22T10:03:08;13.18;;;3.17;;
25107;SDS011;13090;53.422;7.670;2023-12-22T10:08:50;12.77;;;2.60;;
25107;SDS011;13090;53.422;7.670;2023-12-22T10:14:32;8.48;;;1.98;;
25107;SDS011;13090;53.422;7.670;2023-12-22T10:20:17;12.30;;;2.20;;
25107;SDS011;13090;53.422;7.670;2023-12-22T10:25:58;14.32;;;2.83;;
25107;SDS011;13090;53.422;7.670;2023-12-22T10:31:39;14.20;;;1.98;;
25107;SDS011;13090;53.422;7.670;2023-12-22T10:37:22;10.82;;;2.10;;
25107;SDS011;13090;53.422;7.670;2023-12-22T10:43:04;6.63;;;1.50;;
25107;SDS011;13090;53.422;7.670;2023-12-22T10:48:45;8.45;;;1.73;;
25107;SDS011;13090;53.422;7.670;2023-12-22T10:54:27;6.85;;;1.35;;
25107;SDS011;13090;53.422;7.670;2023-12-22T11:00:07;10.80;;;1.65;;
25107;SDS011;13090;53.422;7.670;2023-12-22T11:05:50;7.82;;;1.70;;
25107;SDS011;13090;53.422;7.670;2023-12-22T11:11:36;10.30;;;1.52;;
25107;SDS011;13090;53.422;7.670;2023-12-22T11:17:18;14.55;;;2.00;;
25107;SDS011;13090;53.422;7.670;2023-12-22T11:23:00;10.77;;;1.50;;
25107;SDS011;13090;53.422;7.670;2023-12-22T11:28:42;14.27;;;1.58;;
25107;SDS011;13090;53.422;7.670;2023-12-22T11:34:25;7.13;;;1.40;;
25107;SDS011;13090;53.422;7.670;2023-12-22T11:40:08;10.65;;;1.42;;
25107;SDS011;13090;53.422;7.670;2023-12-22T11:45:50;6.50;;;1.35;;
25107;SDS011;13090;53.422;7.670;2023-12-22T11:51:33;9.18;;;1.75;;
25107;SDS011;13090;53.422;7.670;2023-12-22T11:57:29;8.50;;;1.40;;
25107;SDS011;13090;53.422;7.670;2023-12-22T12:03:15;12.18;;;1.65;;
25107;SDS011;13090;53.422;7.670;2023-12-22T12:08:56;9.52;;;1.60;;
25107;SDS011;13090;53.422;7.670;2023-12-22T12:14:38;11.85;;;1.92;;
25107;SDS011;13090;53.422;7.670;2023-12-22T12:20:23;8.75;;;2.40;;
25107;SDS011;13090;53.422;7.670;2023-12-22T12:26:05;10.88;;;1.60;;
25107;SDS011;13090;53.422;7.670;2023-12-22T12:31:49;8.57;;;1.88;;
25107;SDS011;13090;53.422;7.670;2023-12-22T12:37:31;11.98;;;1.67;;
25107;SDS011;13090;53.422;7.670;2023-12-22T12:43:12;11.88;;;1.65;;
25107;SDS011;13090;53.422;7.670;2023-12-22T12:49:02;10.18;;;2.10;;
25107;SDS011;13090;53.422;7.670;2023-12-22T12:54:44;8.60;;;1.58;;
25107;SDS011;13090;53.422;7.670;2023-12-22T13:00:25;5.63;;;0.98;;
25107;SDS011;13090;53.422;7.670;2023-12-22T13:06:06;5.55;;;1.20;;
25107;SDS011;13090;53.422;7.670;2023-12-22T13:11:48;12.32;;;1.80;;
25107;SDS011;13090;53.422;7.670;2023-12-22T13:17:28;7.38;;;1.77;;
25107;SDS011;13090;53.422;7.670;2023-12-22T13:23:09;12.18;;;1.85;;
25107;SDS011;13090;53.422;7.670;2023-12-22T13:28:56;7.65;;;1.30;;
25107;SDS011;13090;53.422;7.670;2023-12-22T13:34:37;5.97;;;1.27;;
25107;SDS011;13090;53.422;7.670;2023-12-22T13:40:17;8.90;;;1.38;;
25107;SDS011;13090;53.422;7.670;2023-12-22T13:45:59;3.65;;;0.80;;
25107;SDS011;13090;53.422;7.670;2023-12-22T13:51:40;4.32;;;1.00;;
25107;SDS011;13090;53.422;7.670;2023-12-22T13:57:20;4.22;;;0.90;;
25107;SDS011;13090;53.422;7.670;2023-12-22T14:03:02;4.25;;;0.60;;
25107;SDS011;13090;53.422;7.670;2023-12-22T14:08:43;2.30;;;0.70;;
25107;SDS011;13090;53.422;7.670;2023-12-22T14:14:24;3.75;;;0.90;;
25107;SDS011;13090;53.422;7.670;2023-12-22T14:20:07;5.82;;;1.38;;
25107;SDS011;13090;53.422;7.670;2023-12-22T14:25:48;4.60;;;1.50;;
25107;SDS011;13090;53.422;7.670;2023-12-22T14:31:28;3.05;;;0.90;;
25107;SDS011;13090;53.422;7.670;2023-12-22T14:37:09;6.70;;;1.15;;
25107;SDS011;13090;53.422;7.670;2023-12-22T14:42:50;7.90;;;1.70;;
25107;SDS011;13090;53.422;7.670;2023-12-22T14:48:30;3.35;;;1.17;;
25107;SDS011;13090;53.422;7.670;2023-12-22T14:54:12;5.43;;;1.77;;
25107;SDS011;13090;53.422;7.670;2023-12-22T14:59:55;4.55;;;1.20;;
25107;SDS011;13090;53.422;7.670;2023-12-22T15:05:36;3.08;;;1.25;;
25107;SDS011;13090;53.422;7.670;2023-12-22T15:11:18;4.43;;;1.30;;
25107;SDS011;13090;53.422;7.670;2023-12-22T15:16:58;9.77;;;1.10;;
25107;SDS011;13090;53.422;7.670;2023-12-22T15:22:38;6.93;;;1.17;;
25107;SDS011;13090;53.422;7.670;2023-12-22T15:28:20;7.82;;;1.52;;
25107;SDS011;13090;53.422;7.670;2023-12-22T15:34:01;7.15;;;1.48;;
25107;SDS011;13090;53.422;7.670;2023-12-22T15:39:41;5.95;;;1.38;;
25107;SDS011;13090;53.422;7.670;2023-12-22T15:45:23;11.60;;;1.80;;
25107;SDS011;13090;53.422;7.670;2023-12-22T15:51:06;7.03;;;1.83;;
25107;SDS011;13090;53.422;7.670;2023-12-22T15:56:47;9.10;;;1.42;;
25107;SDS011;13090;53.422;7.670;2023-12-22T16:02:29;5.95;;;1.20;;
25107;SDS011;13090;53.422;7.670;2023-12-22T16:08:09;7.55;;;1.58;;
25107;SDS011;13090;53.422;7.670;2023-12-22T16:13:50;8.45;;;1.42;;
25107;SDS011;13090;53.422;7.670;2023-12-22T16:19:31;10.20;;;1.35;;
25107;SDS011;13090;53.422;7.670;2023-12-22T16:25:12;5.03;;;1.25;;
25107;SDS011;13090;53.422;7.670;2023-12-22T16:30:52;10.60;;;2.67;;
25107;SDS011;13090;53.422;7.670;2023-12-22T16:36:34;7.75;;;1.60;;
25107;SDS011;13090;53.422;7.670;2023-12-22T16:42:14;9.73;;;1.52;;
25107;SDS011;13090;53.422;7.670;2023-12-22T16:47:55;7.25;;;1.45;;
25107;SDS011;13090;53.422;7.670;2023-12-22T16:53:39;12.45;;;1.65;;
25107;SDS011;13090;53.422;7.670;2023-12-22T16:59:19;8.20;;;1.73;;
25107;SDS011;13090;53.422;7.670;2023-12-22T17:05:00;8.45;;;1.80;;
25107;SDS011;13090;53.422;7.670;2023-12-22T17:10:43;7.15;;;1.30;;
25107;SDS011;13090;53.422;7.670;2023-12-22T17:16:23;5.30;;;1.52;;
25107;SDS011;13090;53.422;7.670;2023-12-22T17:22:04;13.38;;;3.45;;
25107;SDS011;13090;53.422;7.670;2023-12-22T17:27:45;7.07;;;3.00;;
25107;SDS011;13090;53.422;7.670;2023-12-22T17:33:26;7.50;;;2.88;;
25107;SDS011;13090;53.422;7.670;2023-12-22T17:39:06;4.43;;;1.65;;
25107;SDS011;13090;53.422;7.670;2023-12-22T17:44:48;4.97;;;0.80;;
25107;SDS011;13090;53.422;7.670;2023-12-22T17:50:28;5.20;;;1.15;;
25107;SDS011;13090;53.422;7.670;2023-12-22T17:56:08;5.28;;;0.80;;
25107;SDS011;13090;53.422;7.670;2023-12-22T18:01:50;6.82;;;1.05;;
25107;SDS011;13090;53.422;7.670;2023-12-22T18:07:31;7.55;;;1.58;;
25107;SDS011;13090;53.422;7.670;2023-12-22T18:13:11;4.10;;;1.05;;
25107;SDS011;13090;53.422;7.670;2023-12-22T18:18:53;7.53;;;1.42;;
25107;SDS011;13090;53.422;7.670;2023-12-22T18:24:33;9.23;;;2.90;;
25107;SDS011;13090;53.422;7.670;2023-12-22T18:30:13;4.20;;;1.45;;
25107;SDS011;13090;53.422;7.670;2023-12-22T18:35:58;5.15;;;1.67;;
25107;SDS011;13090;53.422;7.670;2023-12-22T18:41:38;9.95;;;1.80;;
25107;SDS011;13090;53.422;7.670;2023-12-22T18:47:19;5.45;;;1.98;;
25107;SDS011;13090;53.422;7.670;2023-12-22T18:53:01;8.85;;;2.55;;
25107;SDS011;13090;53.422;7.670;2023-12-22T18:58:41;5.15;;;1.95;;
25107;SDS011;13090;53.422;7.670;2023-12-22T19:04:21;4.00;;;1.58;;
25107;SDS011;13090;53.422;7.670;2023-12-22T19:10:07;4.13;;;1.10;;
25107;SDS011;13090;53.422;7.670;2023-12-22T19:15:48;5.65;;;1.20;;
25107;SDS011;13090;53.422;7.670;2023-12-22T19:21:28;6.78;;;1.77;;
25107;SDS011;13090;53.422;7.670;2023-12-22T19:27:10;5.28;;;1.38;;
25107;SDS011;13090;53.422;7.670;2023-12-22T19:32:50;7.88;;;1.80;;
25107;SDS011;13090;53.422;7.670;2023-12-22T19:38:31;5.05;;;0.98;;
25107;SDS011;13090;53.422;7.670;2023-12-22T19:44:12;4.50;;;1.33;;
25107;SDS011;13090;53.422;7.670;2023-12-22T19:49:53;4.10;;;1.30;;
25107;SDS011;13090;53.422;7.670;2023-12-22T19:55:35;5.93;;;1.27;;
25107;SDS011;13090;53.422;7.670;2023-12-22T20:01:18;6.22;;;1.33;;
25107;SDS011;13090;53.422;7.670;2023-12-22T20:06:59;4.72;;;0.95;;
25107;SDS011;13090;53.422;7.670;2023-12-22T20:12:39;7.53;;;1.70;;
25107;SDS011;13090;53.422;7.670;2023-12-22T20:18:21;6.32;;;1.92;;
25107;SDS011;13090;53.422;7.670;2023-12-22T20:24:02;9.30;;;1.90;;
25107;SDS011;13090;53.422;7.670;2023-12-22T20:29:43;16.55;;;2.00;;
25107;SDS011;13090;53.422;7.670;2023-12-22T20:35:26;14.02;;;2.47;;
25107;SDS011;13090;53.422;7.670;2023-12-22T20:41:07;11.82;;;2.17;;
25107;SDS011;13090;53.422;7.670;2023-12-22T20:46:48;15.40;;;2.05;;
25107;SDS011;13090;53.422;7.670;2023-12-22T20:52:33;9.85;;;1.63;;
25107;SDS011;13090;53.422;7.670;2023-12-22T20:58:13;6.72;;;1.50;;
25107;SDS011;13090;53.422;7.670;2023-12-22T21:03:54;9.05;;;1.10;;
25107;SDS011;13090;53.422;7.670;2023-12-22T21:09:36;6.90;;;1.30;;
25107;SDS011;13090;53.422;7.670;2023-12-22T21:15:18;6.20;;;1.20;;
25107;SDS011;13090;53.422;7.670;2023-12-22T21:21:02;9.10;;;1.75;;
25107;SDS011;13090;53.422;7.670;2023-12-22T21:26:44;8.05;;;1.23;;
25107;SDS011;13090;53.422;7.670;2023-12-22T21:32:25;15.23;;;1.70;;
25107;SDS011;13090;53.422;7.670;2023-12-22T21:38:05;7.70;;;1.65;;
25107;SDS011;13090;53.422;7.670;2023-12-22T21:43:47;10.77;;;1.67;;
25107;SDS011;13090;53.422;7.670;2023-12-22T21:49:27;4.95;;;1.00;;
25107;SDS011;13090;53.422;7.670;2023-12-22T21:55:08;7.20;;;1.60;;
25107;SDS011;13090;53.422;7.670;2023-12-22T22:00:49;7.43;;;1.50;;
25107;SDS011;13090;53.422;7.670;2023-12-22T22:06:30;7.50;;;1.60;;
25107;SDS011;13090;53.422;7.670;2023-12-22T22:12:10;13.00;;;1.90;;
25107;SDS011;13090;53.422;7.670;2023-12-22T22:17:53;10.40;;;1.98;;
25107;SDS011;13090;53.422;7.670;2023-12-22T22:23:33;12.05;;;2.40;;
25107;SDS011;13090;53.422;7.670;2023-12-22T22:29:14;13.45;;;1.80;;
25107;SDS011;13090;53.422;7.670;2023-12-22T22:34:56;11.40;;;1.95;;
25107;SDS011;13090;53.422;7.670;2023-12-22T22:40:36;17.17;;;1.95;;
25107;SDS011;13090;53.422;7.670;2023-12-22T22:46:16;12.65;;;1.98;;
25107;SDS011;13090;53.422;7.670;2023-12-22T22:51:58;12.52;;;1.95;;
25107;SDS011;13090;53.422;7.670;2023-12-22T22:57:38;13.27;;;2.00;;
25107;SDS011;13090;53.422;7.670;2023-12-22T23:03:18;17.90;;;2.50;;
25107;SDS011;13090;53.422;7.670;2023-12-22T23:09:00;15.30;;;1.80;;
25107;SDS011;13090;53.422;7.670;2023-12-22T23:14:40;13.50;;;1.80;;
25107;SDS011;13090;53.422;7.670;2023-12-22T23:20:21;10.73;;;1.58;;
25107;SDS011;13090;53.422;7.670;2023-12-22T23:26:02;18.58;;;2.00;;
25107;SDS011;13090;53.422;7.670;2023-12-22T23:31:43;14.15;;;1.60;;
25107;SDS011;13090;53.422;7.670;2023-12-22T23:37:23;13.80;;;1.75;;
25107;SDS011;13090;53.422;7.670;2023-12-22T23:43:05;14.43;;;1.92;;
25107;SDS011;13090;53.422;7.670;2023-12-22T23:48:45;16.77;;;3.13;;
25107;SDS011;13090;53.422;7.670;2023-12-22T23:54:25;12.98;;;2.88;;
